Time;durP1;ratioP1;P1;durP2;ratioP2;P2;SDS_P1;SDS_P2;PMS_P1;PMS_P2;Temp;Humidity;BMP_temperature;BMP_pressure;BME280_temperature;BME280_humidity;BME280_pressure;Samples;Min_cycle;Max_cycle;Signal;HPM_P1;HPM_P2
2023/05/02 00:00:08;;;;;;;17.25;11.85;;;12.50;99.90;;;;;;5002266;28;20037;-81
2023/05/02 00:02:33;;;;;;;16.92;12.40;;;12.60;99.90;;;;;;5014143;28;20026;-81
2023/05/02 00:04:59;;;;;;;17.42;12.10;;;12.70;99.90;;;;;;5015257;28;20064;-81
2023/05/02 00:07:25;;;;;;;14.55;12.27;;;12.80;99.90;;;;;;5015196;28;20033;-81
2023/05/02 00:09:51;;;;;;;20.58;13.00;;;12.80;99.90;;;;;;5014473;28;20040;-81
2023/05/02 00:12:17;;;;;;;14.43;12.52;;;12.90;99.90;;;;;;5015165;28;20034;-82
2023/05/02 00:14:42;;;;;;;15.50;12.50;;;12.80;99.90;;;;;;5003679;28;20043;-81
2023/05/02 00:17:08;;;;;;;18.58;13.82;;;12.90;99.90;;;;;;5005449;28;20034;-82
2023/05/02 00:19:39;;;;;;;18.23;13.60;;;12.90;99.90;;;;;;5006477;28;20470;-81
2023/05/02 00:22:05;;;;;;;18.30;13.65;;;12.90;99.90;;;;;;5014995;28;20100;-82
2023/05/02 00:24:31;;;;;;;15.52;13.07;;;12.90;99.90;;;;;;4995201;28;20110;-82
2023/05/02 00:26:57;;;;;;;18.30;13.57;;;12.90;99.90;;;;;;4995346;28;20034;-82
2023/05/02 00:29:22;;;;;;;19.13;15.05;;;12.90;99.90;;;;;;5001966;28;20030;-82
2023/05/02 00:31:48;;;;;;;19.13;14.63;;;12.90;99.90;;;;;;5003576;28;20018;-82
2023/05/02 00:34:14;;;;;;;18.90;14.68;;;12.90;99.90;;;;;;5014237;28;20556;-82
2023/05/02 00:36:39;;;;;;;24.10;15.60;;;12.90;99.90;;;;;;4999605;28;20027;-81
2023/05/02 00:39:05;;;;;;;20.13;15.73;;;12.90;99.90;;;;;;4993897;28;20117;-81
2023/05/02 00:41:30;;;;;;;22.70;15.93;;;12.90;99.90;;;;;;4994829;28;20116;-82
2023/05/02 00:43:57;;;;;;;22.80;16.00;;;12.90;99.90;;;;;;5001344;28;20033;-81
2023/05/02 00:46:22;;;;;;;19.40;16.02;;;12.90;99.90;;;;;;5013634;28;20018;-82
2023/05/02 00:48:48;;;;;;;18.90;15.15;;;12.90;99.90;;;;;;5014125;28;20096;-80
2023/05/02 00:51:14;;;;;;;20.48;15.68;;;12.90;99.90;;;;;;5014455;28;20037;-81
2023/05/02 00:53:40;;;;;;;19.85;13.98;;;12.90;99.90;;;;;;5013455;28;20033;-81
2023/05/02 00:56:06;;;;;;;19.58;12.35;;;12.70;99.90;;;;;;5014552;28;20026;-81
2023/05/02 00:58:33;;;;;;;18.83;10.00;;;12.70;99.90;;;;;;5013262;28;20026;-82
2023/05/02 01:01:11;;;;;;;15.10;10.30;;;12.50;99.90;;;;;;5012513;28;20037;-81
2023/05/02 01:03:46;;;;;;;10.13;6.75;;;12.40;99.90;;;;;;5013765;28;20032;-81
2023/05/02 01:06:35;;;;;;;11.88;6.72;;;12.20;99.90;;;;;;4995618;28;20034;-81
2023/05/02 01:09:08;;;;;;;8.13;5.40;;;12.20;99.90;;;;;;4994251;28;20026;-81
2023/05/02 01:11:47;;;;;;;12.98;6.78;;;12.20;99.90;;;;;;4993855;28;20030;-80
2023/05/02 01:14:14;;;;;;;8.73;6.40;;;12.10;99.90;;;;;;4994594;28;20498;-81
2023/05/02 01:16:44;;;;;;;10.70;7.50;;;12.20;99.90;;;;;;5012307;28;20026;-81
2023/05/02 01:19:20;;;;;;;13.70;6.40;;;12.10;99.90;;;;;;4994215;28;20481;-80
2023/05/02 01:21:48;;;;;;;11.05;6.57;;;12.10;99.90;;;;;;4993276;28;20037;-81
2023/05/02 01:24:23;;;;;;;16.38;7.22;;;12.10;99.90;;;;;;5006393;28;20036;-81
2023/05/02 01:27:13;;;;;;;16.95;6.65;;;12.10;99.90;;;;;;5012789;28;20584;-81
2023/05/02 01:29:40;;;;;;;11.25;5.18;;;12.20;99.90;;;;;;5013420;28;20469;-81
2023/05/02 01:32:07;;;;;;;13.25;4.50;;;12.20;99.90;;;;;;5000683;28;20367;-81
2023/05/02 01:34:37;;;;;;;17.52;5.32;;;12.10;99.90;;;;;;4992745;28;20038;-81
2023/05/02 01:37:04;;;;;;;15.15;5.68;;;11.80;99.90;;;;;;4993910;28;20026;-81
2023/05/02 01:39:31;;;;;;;13.80;4.45;;;11.70;99.90;;;;;;4993638;28;20056;-82
2023/05/02 01:42:01;;;;;;;15.38;4.45;;;11.60;99.90;;;;;;4992441;28;20117;-82
2023/05/02 01:44:29;;;;;;;9.63;3.58;;;11.50;99.90;;;;;;5001371;28;20034;-82
2023/05/02 01:46:56;;;;;;;13.40;4.00;;;11.50;99.90;;;;;;5004039;28;20033;-82
2023/05/02 01:49:24;;;;;;;10.00;3.10;;;11.50;99.90;;;;;;5012534;28;20372;-82
2023/05/02 01:51:50;;;;;;;12.80;4.10;;;11.60;99.90;;;;;;4996081;28;20040;-82
2023/05/02 01:54:17;;;;;;;13.02;3.55;;;11.50;99.90;;;;;;5000453;28;20042;-82
2023/05/02 01:56:44;;;;;;;12.18;4.72;;;11.50;99.90;;;;;;5008988;28;20022;-81
2023/05/02 01:59:22;;;;;;;18.83;4.70;;;11.50;99.90;;;;;;5003899;28;20474;-82
2023/05/02 02:01:50;;;;;;;19.80;4.45;;;11.50;99.90;;;;;;4992805;28;20104;-82
2023/05/02 02:04:18;;;;;;;13.50;5.05;;;11.50;99.90;;;;;;4993318;28;20045;-81
2023/05/02 02:06:52;;;;;;;22.85;3.83;;;11.40;99.90;;;;;;4992935;28;20030;-81
2023/05/02 02:09:18;;;;;;;14.02;3.80;;;11.50;99.90;;;;;;4993197;28;20092;-81
2023/05/02 02:11:51;;;;;;;18.50;4.50;;;11.50;99.90;;;;;;4992569;28;20421;-81
2023/05/02 02:14:20;;;;;;;19.75;8.57;;;11.50;99.90;;;;;;4993537;28;20066;-82
2023/05/02 02:16:46;;;;;;;20.48;8.90;;;11.60;99.90;;;;;;4992590;28;20037;-81
2023/05/02 02:19:14;;;;;;;26.42;9.98;;;11.50;99.90;;;;;;4992964;28;20054;-81
2023/05/02 02:21:42;;;;;;;17.52;8.93;;;11.50;99.90;;;;;;4997864;28;20461;-82
2023/05/02 02:24:08;;;;;;;28.50;8.73;;;11.50;99.90;;;;;;5011622;28;20038;-81
2023/05/02 02:26:35;;;;;;;24.58;8.25;;;11.50;99.90;;;;;;5001116;28;20027;-81
2023/05/02 02:29:00;;;;;;;18.27;9.05;;;11.50;99.90;;;;;;5006731;28;20026;-82
2023/05/02 02:31:37;;;;;;;17.02;8.90;;;11.40;99.90;;;;;;4993428;28;20157;-81
2023/05/02 02:34:04;;;;;;;19.65;9.35;;;11.40;99.90;;;;;;4996108;28;20042;-81
2023/05/02 02:36:45;;;;;;;15.27;8.82;;;11.50;99.90;;;;;;5005559;28;20149;-82
2023/05/02 02:39:31;;;;;;;10.38;5.35;;;11.50;99.90;;;;;;5003791;28;20040;-81
2023/05/02 02:42:21;;;;;;;12.23;5.05;;;11.50;99.90;;;;;;5012066;28;20053;-82
2023/05/02 02:45:11;;;;;;;15.45;5.68;;;11.40;99.90;;;;;;4994189;28;20027;-81
2023/05/02 02:47:51;;;;;;;13.82;4.15;;;11.40;99.90;;;;;;4992135;28;20074;-82
2023/05/02 02:50:26;;;;;;;9.02;4.03;;;11.30;99.90;;;;;;4992904;28;20035;-81
2023/05/02 02:53:01;;;;;;;10.13;3.58;;;11.40;99.90;;;;;;4991949;28;20054;-81
2023/05/02 02:55:47;;;;;;;12.15;3.35;;;11.30;99.90;;;;;;5008529;28;20092;-81
2023/05/02 02:58:45;;;;;;;7.60;3.33;;;11.30;99.90;;;;;;5011551;28;20492;-82
2023/05/02 03:01:16;;;;;;;10.20;2.80;;;11.30;99.90;;;;;;5012571;28;20113;-81
2023/05/02 03:03:43;;;;;;;6.32;2.65;;;11.30;99.90;;;;;;5012313;28;20474;-81
2023/05/02 03:06:08;;;;;;;6.97;3.17;;;11.30;99.90;;;;;;5011050;28;20033;-81
2023/05/02 03:08:41;;;;;;;7.95;3.75;;;11.10;99.90;;;;;;5010359;28;20026;-81
2023/05/02 03:11:08;;;;;;;6.55;3.35;;;11.20;99.90;;;;;;5000665;28;20126;-81
2023/05/02 03:13:34;;;;;;;8.20;3.17;;;11.20;99.90;;;;;;4991862;28;20057;-81
2023/05/02 03:16:32;;;;;;;6.80;2.85;;;11.20;99.90;;;;;;4992992;28;20029;-82
2023/05/02 03:18:58;;;;;;;8.07;2.70;;;11.20;99.90;;;;;;5006698;28;20025;-81
2023/05/02 03:21:24;;;;;;;4.95;2.70;;;11.10;99.90;;;;;;4995032;28;20193;-81
2023/05/02 03:23:49;;;;;;;7.22;2.42;;;11.20;99.90;;;;;;4992624;28;20030;-81
2023/05/02 03:26:16;;;;;;;8.43;2.00;;;11.30;99.90;;;;;;4997246;28;20555;-81
2023/05/02 03:28:41;;;;;;;3.90;2.10;;;11.20;99.90;;;;;;5011983;28;20026;-81
2023/05/02 03:31:07;;;;;;;8.93;2.47;;;11.50;99.90;;;;;;5012104;28;20473;-81
2023/05/02 03:33:32;;;;;;;8.02;2.05;;;11.20;99.90;;;;;;5011035;28;20033;-81
2023/05/02 03:35:58;;;;;;;5.90;2.05;;;11.10;99.90;;;;;;5008279;28;20043;-81
2023/05/02 03:38:24;;;;;;;14.60;2.70;;;11.10;99.90;;;;;;4992425;28;20037;-81
2023/05/02 03:40:49;;;;;;;7.72;2.30;;;11.10;99.90;;;;;;4990994;28;20092;-81
2023/05/02 03:43:15;;;;;;;7.68;2.00;;;11.00;99.90;;;;;;4992522;28;20041;-81
2023/05/02 03:45:40;;;;;;;2.67;1.58;;;11.10;99.90;;;;;;4992250;28;20065;-80
2023/05/02 03:48:06;;;;;;;11.10;2.70;;;11.00;99.90;;;;;;4994772;28;20482;-81
2023/05/02 03:50:31;;;;;;;8.90;2.83;;;11.10;99.90;;;;;;4995612;28;20029;-81
2023/05/02 03:52:57;;;;;;;9.95;2.92;;;11.00;99.90;;;;;;5008122;28;20026;-81
2023/05/02 03:55:23;;;;;;;5.57;1.95;;;11.10;99.90;;;;;;4991864;28;20069;-81
2023/05/02 03:57:48;;;;;;;5.32;1.67;;;11.10;99.90;;;;;;4992300;28;20026;-81
2023/05/02 04:00:14;;;;;;;9.18;1.98;;;11.10;99.90;;;;;;5011350;28;20030;-81
2023/05/02 04:02:40;;;;;;;10.00;2.05;;;11.00;99.90;;;;;;5000975;28;20026;-81
2023/05/02 04:05:07;;;;;;;6.45;1.95;;;11.30;99.90;;;;;;5015026;28;20044;-81
2023/05/02 04:07:33;;;;;;;9.80;2.38;;;10.90;99.90;;;;;;5013256;28;20032;-81
2023/05/02 04:09:59;;;;;;;5.05;1.55;;;10.90;99.90;;;;;;4995256;28;20254;-81
2023/05/02 04:12:24;;;;;;;11.52;1.80;;;10.80;99.90;;;;;;4995904;28;20022;-81
2023/05/02 04:14:50;;;;;;;6.68;1.73;;;10.80;99.90;;;;;;4995213;28;20389;-81
2023/05/02 04:17:15;;;;;;;7.57;1.85;;;10.80;99.90;;;;;;4994758;28;20026;-82
2023/05/02 04:19:41;;;;;;;8.02;1.73;;;10.70;99.90;;;;;;5011696;28;20036;-81
2023/05/02 04:22:07;;;;;;;6.40;1.27;;;10.70;99.90;;;;;;5014925;28;20033;-81
2023/05/02 04:24:32;;;;;;;7.47;2.15;;;10.60;99.90;;;;;;5014177;28;20057;-82
2023/05/02 04:26:58;;;;;;;5.45;2.00;;;10.60;99.90;;;;;;5014886;28;20030;-82
2023/05/02 04:29:23;;;;;;;5.10;1.60;;;10.70;99.90;;;;;;5014919;28;20021;-81
2023/05/02 04:31:50;;;;;;;6.97;1.77;;;10.70;99.90;;;;;;5014017;28;20036;-82
2023/05/02 04:34:15;;;;;;;7.95;1.75;;;10.70;99.90;;;;;;5013973;28;20504;-81
2023/05/02 04:36:43;;;;;;;8.32;2.03;;;10.70;99.90;;;;;;4994503;28;20026;-81
2023/05/02 04:39:09;;;;;;;6.47;1.90;;;10.70;99.90;;;;;;5014498;28;20117;-82
2023/05/02 04:41:34;;;;;;;3.83;1.77;;;10.70;99.90;;;;;;5006602;28;20126;-82
2023/05/02 04:44:00;;;;;;;11.57;1.65;;;10.70;99.90;;;;;;5003299;28;20149;-82
2023/05/02 04:46:25;;;;;;;8.15;1.48;;;10.70;99.90;;;;;;4994925;28;20097;-80
2023/05/02 04:48:51;;;;;;;6.53;1.67;;;10.80;99.90;;;;;;5010733;28;20053;-81
2023/05/02 04:51:17;;;;;;;5.07;1.33;;;10.80;99.90;;;;;;5013879;28;20524;-81
2023/05/02 04:53:42;;;;;;;7.70;2.00;;;10.80;99.90;;;;;;5009168;28;20517;-81
2023/05/02 04:56:08;;;;;;;7.05;2.00;;;10.90;99.90;;;;;;4994908;28;20078;-81
2023/05/02 04:58:34;;;;;;;6.43;1.92;;;10.80;99.90;;;;;;4993714;28;20022;-81
2023/05/02 05:01:00;;;;;;;5.70;1.50;;;10.90;99.90;;;;;;5007687;28;20034;-80
2023/05/02 05:03:28;;;;;;;6.45;1.80;;;10.90;99.90;;;;;;5014248;28;20025;-81
2023/05/02 05:05:54;;;;;;;8.63;1.98;;;10.80;99.90;;;;;;5013069;28;20033;-82
2023/05/02 05:08:20;;;;;;;10.02;2.03;;;10.70;99.90;;;;;;5013885;28;20060;-81
2023/05/02 05:10:45;;;;;;;3.40;1.70;;;10.80;99.90;;;;;;5013505;28;20040;-81
2023/05/02 05:13:12;;;;;;;4.47;1.67;;;10.80;99.90;;;;;;5013091;28;20420;-81
2023/05/02 05:15:39;;;;;;;6.05;1.75;;;10.80;99.90;;;;;;5011992;28;20116;-81
2023/05/02 05:18:04;;;;;;;11.38;2.03;;;10.70;99.90;;;;;;4997805;28;20034;-82
2023/05/02 05:20:30;;;;;;;8.77;2.42;;;10.70;99.90;;;;;;4993671;28;20026;-80
2023/05/02 05:22:56;;;;;;;10.38;1.98;;;10.70;99.90;;;;;;4994217;28;20022;-81
2023/05/02 05:25:21;;;;;;;9.95;2.28;;;10.70;99.90;;;;;;5001996;28;20053;-81
2023/05/02 05:27:47;;;;;;;9.75;2.28;;;10.80;99.90;;;;;;4993260;28;20509;-81
2023/05/02 05:30:12;;;;;;;5.82;1.98;;;10.90;99.90;;;;;;5011945;28;20022;-81
2023/05/02 05:32:38;;;;;;;6.90;1.88;;;10.80;99.90;;;;;;4998054;28;20022;-81
2023/05/02 05:35:04;;;;;;;12.38;3.17;;;10.90;99.90;;;;;;4995782;28;20042;-81
2023/05/02 05:37:30;;;;;;;10.80;2.13;;;11.00;99.90;;;;;;5013911;28;20472;-81
2023/05/02 05:39:55;;;;;;;9.82;2.10;;;11.00;99.90;;;;;;4994429;28;20041;-82
2023/05/02 05:42:21;;;;;;;10.07;2.42;;;11.10;99.90;;;;;;5004285;28;20033;-81
2023/05/02 05:44:46;;;;;;;10.98;3.08;;;11.00;99.90;;;;;;5007656;28;20017;-81
2023/05/02 05:47:12;;;;;;;6.80;2.25;;;11.00;99.90;;;;;;5012269;28;20029;-81
2023/05/02 05:49:37;;;;;;;15.25;3.17;;;11.20;99.90;;;;;;5011910;28;20029;-81
2023/05/02 05:52:03;;;;;;;10.80;3.05;;;11.20;99.90;;;;;;5012646;28;20382;-81
2023/05/02 05:54:28;;;;;;;15.90;3.28;;;11.30;99.90;;;;;;5010966;28;20026;-81
2023/05/02 05:56:54;;;;;;;10.15;2.75;;;11.30;99.90;;;;;;5011166;28;20036;-81
2023/05/02 05:59:21;;;;;;;8.95;2.70;;;11.40;99.90;;;;;;5007491;28;20452;-81
2023/05/02 06:01:46;;;;;;;11.02;2.40;;;11.30;99.90;;;;;;5003341;28;20033;-81
2023/05/02 06:04:12;;;;;;;6.95;2.95;;;11.30;99.90;;;;;;5004528;28;20021;-81
2023/05/02 06:06:37;;;;;;;9.32;2.70;;;11.20;99.90;;;;;;5003117;28;20068;-82
2023/05/02 06:09:03;;;;;;;10.80;2.60;;;11.30;99.90;;;;;;5001679;28;20027;-82
2023/05/02 06:11:28;;;;;;;10.10;2.60;;;11.20;99.90;;;;;;5009872;28;20018;-82
2023/05/02 06:13:55;;;;;;;15.57;3.22;;;11.20;99.90;;;;;;5003822;28;20037;-82
2023/05/02 06:16:21;;;;;;;6.82;2.35;;;11.30;99.90;;;;;;5000955;28;20019;-82
2023/05/02 06:18:49;;;;;;;9.48;2.83;;;11.30;99.90;;;;;;5002715;28;20153;-82
2023/05/02 06:21:14;;;;;;;12.77;2.78;;;11.30;99.90;;;;;;5003319;28;20454;-81
2023/05/02 06:23:41;;;;;;;11.02;2.63;;;11.30;99.90;;;;;;5000001;28;20023;-81
2023/05/02 06:26:07;;;;;;;10.93;2.70;;;11.30;99.90;;;;;;5002675;28;20385;-81
2023/05/02 06:28:32;;;;;;;12.25;2.90;;;11.30;99.90;;;;;;5000392;28;20033;-81
2023/05/02 06:31:03;;;;;;;5.35;2.53;;;11.20;99.90;;;;;;5002894;28;20037;-81
2023/05/02 06:33:30;;;;;;;13.35;2.47;;;11.20;99.90;;;;;;5001332;28;20026;-81
2023/05/02 06:35:56;;;;;;;10.80;2.90;;;11.30;99.90;;;;;;5005662;28;20057;-80
2023/05/02 06:38:22;;;;;;;11.73;3.08;;;11.50;99.90;;;;;;5002389;28;20469;-82
2023/05/02 06:40:48;;;;;;;7.25;2.40;;;11.50;99.90;;;;;;4995091;28;20060;-81
2023/05/02 06:43:14;;;;;;;11.75;3.03;;;11.40;99.90;;;;;;4992134;28;20049;-81
2023/05/02 06:45:40;;;;;;;9.65;2.42;;;11.40;99.90;;;;;;4993414;28;20030;-81
2023/05/02 06:48:06;;;;;;;8.10;2.20;;;11.30;99.90;;;;;;4999940;28;20030;-81
2023/05/02 06:50:32;;;;;;;15.30;2.78;;;11.20;99.90;;;;;;4999384;28;20096;-81
2023/05/02 06:52:58;;;;;;;6.63;2.03;;;11.10;99.90;;;;;;5007715;28;20477;-81
2023/05/02 06:55:23;;;;;;;8.50;2.20;;;11.10;99.90;;;;;;5000923;28;20481;-81
2023/05/02 06:57:49;;;;;;;8.55;2.17;;;11.10;99.90;;;;;;5000592;28;20420;-82
2023/05/02 07:00:16;;;;;;;10.30;2.75;;;11.10;99.90;;;;;;5005040;28;20041;-81
2023/05/02 07:02:44;;;;;;;8.43;2.25;;;11.20;99.90;;;;;;4995802;28;20117;-81
2023/05/02 07:05:10;;;;;;;8.32;2.10;;;11.00;99.90;;;;;;5011697;28;20033;-80
2023/05/02 07:07:35;;;;;;;5.78;1.90;;;10.90;99.90;;;;;;5011948;28;20022;-80
2023/05/02 07:10:02;;;;;;;12.25;2.33;;;10.90;99.90;;;;;;4992554;28;20031;-81
2023/05/02 07:12:27;;;;;;;6.20;1.70;;;10.90;99.90;;;;;;4991785;28;20031;-82
2023/05/02 07:14:53;;;;;;;7.18;1.58;;;11.00;99.90;;;;;;5009983;28;20095;-82
2023/05/02 07:17:18;;;;;;;12.40;2.83;;;10.90;99.90;;;;;;5012013;28;20022;-82
2023/05/02 07:19:44;;;;;;;6.93;1.95;;;11.00;99.90;;;;;;5002456;28;20027;-81
2023/05/02 07:22:10;;;;;;;7.53;2.15;;;11.00;99.90;;;;;;5003048;28;20029;-82
2023/05/02 07:24:40;;;;;;;7.47;1.88;;;11.00;99.90;;;;;;4991789;28;20026;-82
2023/05/02 07:27:07;;;;;;;9.75;2.22;;;11.00;99.90;;;;;;4999880;28;20019;-81
2023/05/02 07:29:32;;;;;;;8.40;2.30;;;11.10;99.90;;;;;;5001915;28;20393;-81
2023/05/02 07:31:58;;;;;;;9.27;2.80;;;11.10;99.90;;;;;;5001505;28;20018;-82
2023/05/02 07:34:23;;;;;;;6.70;2.33;;;11.00;99.90;;;;;;5002400;28;20050;-83
2023/05/02 07:36:49;;;;;;;14.85;3.60;;;11.00;99.90;;;;;;4995787;28;20033;-83
2023/05/02 07:39:14;;;;;;;6.90;2.22;;;11.00;99.90;;;;;;5007236;28;20100;-81
2023/05/02 07:41:40;;;;;;;19.15;2.00;;;11.00;99.90;;;;;;4994903;28;20544;-83
2023/05/02 07:44:05;;;;;;;8.75;1.95;;;11.20;99.90;;;;;;5002343;28;20389;-82
2023/05/02 07:46:31;;;;;;;10.65;1.77;;;11.20;99.90;;;;;;4999755;28;20505;-80
2023/05/02 07:48:56;;;;;;;7.43;2.08;;;11.20;99.90;;;;;;5010357;28;20030;-81
2023/05/02 07:51:22;;;;;;;6.95;1.75;;;11.40;99.90;;;;;;5006107;28;20017;-81
2023/05/02 07:53:53;;;;;;;9.85;2.40;;;11.30;99.90;;;;;;5014277;28;20037;-84
2023/05/02 07:56:18;;;;;;;;;;;11.40;99.90;;;;;;5015137;28;20029;-82
2023/05/02 07:58:44;;;;;;;7.28;2.20;;;11.50;99.90;;;;;;5013305;28;19914;-83
2023/05/02 08:01:10;;;;;;;8.00;2.05;;;11.50;99.90;;;;;;4997053;28;20026;-81
2023/05/02 08:03:35;;;;;;;8.23;1.92;;;11.60;99.90;;;;;;4998464;28;20030;-80
2023/05/02 08:06:01;;;;;;;4.65;1.70;;;11.50;99.90;;;;;;5009884;28;20512;-84
2023/05/02 08:08:27;;;;;;;4.43;1.90;;;11.60;99.90;;;;;;5010818;28;20478;-84
2023/05/02 08:10:52;;;;;;;9.70;1.80;;;11.60;99.90;;;;;;5010922;28;20037;-82
2023/05/02 08:13:18;;;;;;;8.88;1.80;;;11.50;99.90;;;;;;5002960;28;20117;-83
2023/05/02 08:15:43;;;;;;;6.75;1.77;;;11.60;99.90;;;;;;4994432;28;20134;-82
2023/05/02 08:18:09;;;;;;;5.53;2.13;;;11.60;99.90;;;;;;5000384;28;20631;-82
2023/05/02 08:20:35;;;;;;;3.85;1.77;;;11.60;99.90;;;;;;5006777;28;20490;-82
2023/05/02 08:23:00;;;;;;;7.20;1.67;;;11.60;99.90;;;;;;4999390;28;20063;-82
2023/05/02 08:25:26;;;;;;;5.60;1.70;;;11.60;99.90;;;;;;4998189;28;20022;-82
2023/05/02 08:27:52;;;;;;;7.47;1.90;;;11.50;99.90;;;;;;4995492;28;20042;-82
2023/05/02 08:30:17;;;;;;;7.90;2.10;;;11.50;99.90;;;;;;5006703;28;20049;-83
2023/05/02 08:32:44;;;;;;;5.28;2.00;;;11.40;99.90;;;;;;5011642;28;20030;-83
2023/05/02 08:35:10;;;;;;;3.70;1.67;;;11.30;99.90;;;;;;5010584;28;20069;-83
2023/05/02 08:37:36;;;;;;;9.13;1.98;;;11.40;99.90;;;;;;5010134;28;20018;-81
2023/05/02 08:40:01;;;;;;;8.57;2.15;;;11.40;99.90;;;;;;5013383;28;20493;-81
2023/05/02 08:42:31;;;;;;;6.78;1.95;;;11.50;99.90;;;;;;5004433;28;20050;-82
2023/05/02 08:44:57;;;;;;;7.90;1.90;;;11.50;99.90;;;;;;4996506;28;20482;-83
2023/05/02 08:47:25;;;;;;;9.05;2.00;;;11.70;99.90;;;;;;4994067;28;20035;-82
2023/05/02 08:49:54;;;;;;;6.35;1.80;;;11.60;99.90;;;;;;4993753;28;20034;-82
2023/05/02 08:52:19;;;;;;;5.68;1.90;;;11.70;99.90;;;;;;5002402;28;20022;-82
2023/05/02 08:54:46;;;;;;;5.85;1.60;;;11.80;99.90;;;;;;4994045;28;20034;-82
2023/05/02 08:57:12;;;;;;;10.88;1.92;;;11.70;99.90;;;;;;4993157;28;20030;-82
2023/05/02 08:59:37;;;;;;;2.55;1.23;;;11.50;99.90;;;;;;4993748;28;20076;-83
2023/05/02 09:02:25;;;;;;;5.50;1.38;;;11.60;99.90;;;;;;5004682;28;20027;-82
2023/05/02 09:04:54;;;;;;;11.23;2.67;;;11.40;99.90;;;;;;5007368;28;20030;-82
2023/05/02 09:07:21;;;;;;;8.65;1.45;;;11.50;99.90;;;;;;5008314;28;20084;-82
2023/05/02 09:09:46;;;;;;;8.50;2.03;;;11.40;99.90;;;;;;4994408;28;20057;-81
2023/05/02 09:12:12;;;;;;;5.00;1.85;;;11.40;99.90;;;;;;5012715;28;20030;-82
2023/05/02 09:14:38;;;;;;;5.22;2.05;;;11.50;99.90;;;;;;5012340;28;20042;-82
2023/05/02 09:17:03;;;;;;;8.00;1.95;;;11.50;99.90;;;;;;5013900;28;20041;-82
2023/05/02 09:19:29;;;;;;;4.40;1.67;;;11.60;99.90;;;;;;4998263;28;20113;-83
2023/05/02 09:22:00;;;;;;;7.35;1.75;;;11.60;99.90;;;;;;4993317;28;20026;-82
2023/05/02 09:24:25;;;;;;;;;;;11.60;99.90;;;;;;4994518;28;20034;-82
2023/05/02 09:27:04;;;;;;;5.43;1.63;;;11.60;99.90;;;;;;4993420;28;19916;-82
2023/05/02 09:29:34;;;;;;;7.93;2.33;;;11.60;99.90;;;;;;5007959;28;20086;-82
2023/05/02 09:32:02;;;;;;;5.65;1.90;;;11.70;99.90;;;;;;5008587;28;20038;-82
2023/05/02 09:34:28;;;;;;;6.68;1.92;;;11.60;99.90;;;;;;4993946;28;20042;-82
2023/05/02 09:36:53;;;;;;;9.27;1.70;;;11.60;99.90;;;;;;4993660;28;20022;-82
2023/05/02 09:39:24;;;;;;;6.50;2.03;;;11.60;99.90;;;;;;4992913;28;20474;-83
2023/05/02 09:41:50;;;;;;;7.82;2.15;;;11.70;99.90;;;;;;4993302;28;20898;-84
2023/05/02 09:44:17;;;;;;;8.52;2.50;;;11.80;99.90;;;;;;5007364;28;20058;-81
2023/05/02 09:46:50;;;;;;;7.40;2.40;;;11.80;99.90;;;;;;5012301;28;20097;-81
2023/05/02 09:49:17;;;;;;;5.05;1.75;;;11.80;99.90;;;;;;4993738;28;20589;-84
2023/05/02 09:51:43;;;;;;;5.43;1.90;;;11.70;99.90;;;;;;4993597;28;20110;-82
2023/05/02 09:54:09;;;;;;;4.25;2.15;;;11.80;99.90;;;;;;4995259;28;20092;-82
2023/05/02 09:56:57;;;;;;;9.27;2.20;;;11.90;99.90;;;;;;5000832;28;20066;-82
2023/05/02 09:59:24;;;;;;;5.57;1.92;;;11.90;99.90;;;;;;4993837;28;20385;-82
2023/05/02 10:02:00;;;;;;;7.70;2.17;;;11.90;99.90;;;;;;4992302;28;20502;-84
2023/05/02 10:04:27;;;;;;;5.05;2.03;;;11.90;99.90;;;;;;4993718;28;20052;-83
2023/05/02 10:06:53;;;;;;;4.53;1.83;;;12.10;99.90;;;;;;4995350;28;20366;-83
2023/05/02 10:09:20;;;;;;;4.13;2.00;;;12.00;99.90;;;;;;5001747;28;20471;-82
2023/05/02 10:11:49;;;;;;;6.10;1.83;;;11.90;99.90;;;;;;5000774;28;20035;-82
2023/05/02 10:14:18;;;;;;;5.82;1.70;;;11.90;99.90;;;;;;4992562;28;20085;-84
2023/05/02 10:17:00;;;;;;;5.90;1.77;;;11.90;99.90;;;;;;5007460;28;20057;-83
2023/05/02 10:19:47;;;;;;;10.32;2.25;;;11.90;99.90;;;;;;5012841;28;20048;-83
2023/05/02 10:22:13;;;;;;;8.15;2.85;;;11.90;99.90;;;;;;5011880;28;20110;-85
2023/05/02 10:24:40;;;;;;;6.72;1.80;;;11.90;99.90;;;;;;5007778;28;20033;-84
2023/05/02 10:27:07;;;;;;;6.57;1.88;;;11.90;99.90;;;;;;4993098;28;20072;-84
2023/05/02 10:29:33;;;;;;;6.18;2.15;;;12.00;99.90;;;;;;5000357;28;20030;-86
2023/05/02 10:32:02;;;;;;;4.22;1.70;;;12.00;99.90;;;;;;5013091;28;20141;-84
2023/05/02 10:34:31;;;;;;;3.25;1.90;;;12.10;99.90;;;;;;5002942;28;20112;-83
2023/05/02 10:37:00;;;;;;;5.47;1.55;;;12.20;99.90;;;;;;5002560;28;20025;-83
2023/05/02 10:39:26;;;;;;;4.03;2.15;;;12.10;99.90;;;;;;5008446;28;20058;-83
2023/05/02 10:41:55;;;;;;;4.25;1.98;;;12.20;99.90;;;;;;4992115;28;20576;-83
2023/05/02 10:44:38;;;;;;;3.78;1.70;;;12.30;99.90;;;;;;4992221;28;20038;-84
2023/05/02 10:47:18;;;;;;;2.10;1.73;;;12.30;99.90;;;;;;4998855;28;20493;-83
2023/05/02 10:49:51;;;;;;;9.52;2.50;;;12.40;99.90;;;;;;5011569;28;20018;-82
2023/05/02 10:52:32;;;;;;;6.15;1.98;;;12.60;99.90;;;;;;5012363;28;20489;-85
2023/05/02 10:55:20;;;;;;;3.17;1.90;;;12.50;99.90;;;;;;5011020;28;20042;-83
2023/05/02 10:57:57;;;;;;;7.22;2.13;;;12.40;99.90;;;;;;5009440;28;20048;-83
2023/05/02 11:00:25;;;;;;;6.85;2.28;;;12.30;99.90;;;;;;4992779;28;20153;-84
2023/05/02 11:02:51;;;;;;;4.18;1.73;;;12.30;99.90;;;;;;4992156;28;20085;-83
2023/05/02 11:05:17;;;;;;;4.55;1.83;;;12.20;99.50;;;;;;4991225;28;20062;-83
2023/05/02 11:07:42;;;;;;;9.65;2.40;;;12.10;99.30;;;;;;5001905;28;20026;-83
2023/05/02 11:10:17;;;;;;;7.88;1.85;;;12.20;99.40;;;;;;5002610;28;20037;-83
2023/05/02 11:12:45;;;;;;;4.38;2.15;;;12.30;99.70;;;;;;5011944;28;20033;-81
2023/05/02 11:15:10;;;;;;;4.80;1.92;;;12.40;99.40;;;;;;5008716;28;20045;-82
2023/05/02 11:18:05;;;;;;;6.63;2.45;;;12.50;99.00;;;;;;5006719;28;20026;-81
2023/05/02 11:20:31;;;;;;;7.57;2.60;;;12.50;99.20;;;;;;5008665;28;20033;-83
2023/05/02 11:22:58;;;;;;;5.95;2.20;;;12.50;99.00;;;;;;5006354;28;20389;-82
2023/05/02 11:25:35;;;;;;;7.80;2.28;;;12.50;98.60;;;;;;5000049;28;20231;-83
2023/05/02 11:28:01;;;;;;;10.98;2.60;;;12.60;99.00;;;;;;5000674;28;20036;-82
2023/05/02 11:30:46;;;;;;;3.78;2.03;;;12.60;99.30;;;;;;5014205;28;20485;-85
2023/05/02 11:33:14;;;;;;;10.82;3.22;;;12.60;98.60;;;;;;5011326;28;20043;-86
2023/05/02 11:35:41;;;;;;;4.40;2.58;;;12.70;98.80;;;;;;5009463;28;20169;-83
2023/05/02 11:38:15;;;;;;;6.65;2.78;;;12.60;99.80;;;;;;5009758;28;20029;-85
2023/05/02 11:40:58;;;;;;;10.18;2.70;;;12.50;99.90;;;;;;5010349;28;20117;-84
2023/05/02 11:43:26;;;;;;;4.18;1.98;;;12.50;99.90;;;;;;5013041;28;20041;-83
2023/05/02 11:45:58;;;;;;;13.85;2.17;;;12.50;99.60;;;;;;5011917;28;20586;-84
2023/05/02 11:48:26;;;;;;;4.57;2.42;;;12.50;99.20;;;;;;5004983;28;20046;-84
2023/05/02 11:50:56;;;;;;;11.60;3.00;;;12.60;99.20;;;;;;5000840;28;20072;-84
2023/05/02 11:53:24;;;;;;;12.95;3.33;;;12.70;98.80;;;;;;5005675;28;20026;-85
2023/05/02 11:56:01;;;;;;;7.97;2.95;;;12.70;98.40;;;;;;5008841;28;20069;-85
2023/05/02 11:58:30;;;;;;;7.47;2.40;;;12.70;98.70;;;;;;5010367;28;20041;-85
2023/05/02 12:00:56;;;;;;;7.97;2.95;;;12.80;99.20;;;;;;5000015;28;20033;-85
2023/05/02 12:03:26;;;;;;;6.82;3.17;;;12.70;99.30;;;;;;5003337;28;20034;-85
2023/05/02 12:05:52;;;;;;;8.23;3.05;;;12.70;99.10;;;;;;4993507;28;20034;-85
2023/05/02 12:08:26;;;;;;;5.10;2.80;;;12.80;99.00;;;;;;5005429;28;20018;-85
2023/05/02 12:10:54;;;;;;;8.65;2.70;;;12.70;98.90;;;;;;5012826;28;20029;-85
2023/05/02 12:13:22;;;;;;;6.38;2.40;;;12.70;99.70;;;;;;5013267;28;20036;-85
2023/05/02 12:15:49;;;;;;;9.50;2.72;;;12.80;98.80;;;;;;5012620;28;20045;-86
2023/05/02 12:18:15;;;;;;;9.00;2.55;;;12.80;99.00;;;;;;5014828;28;20022;-84
2023/05/02 12:20:42;;;;;;;13.15;3.30;;;12.90;99.10;;;;;;5012894;28;20033;-83
2023/05/02 12:23:08;;;;;;;7.85;3.42;;;12.90;99.50;;;;;;4995267;28;20486;-83
2023/05/02 12:25:39;;;;;;;5.47;3.28;;;12.90;99.50;;;;;;4995239;28;20034;-82
2023/05/02 12:28:05;;;;;;;8.25;3.80;;;13.00;99.50;;;;;;5004235;28;20036;-82
2023/05/02 12:30:31;;;;;;;6.45;2.88;;;13.10;99.60;;;;;;5009371;28;20073;-82
2023/05/02 12:33:00;;;;;;;6.38;3.15;;;13.10;98.30;;;;;;4998818;28;20147;-82
2023/05/02 12:35:26;;;;;;;6.82;2.95;;;13.10;98.70;;;;;;4998574;28;20034;-82
2023/05/02 12:37:53;;;;;;;6.88;3.15;;;13.10;98.60;;;;;;5004391;28;20507;-82
2023/05/02 12:40:18;;;;;;;6.50;3.17;;;13.10;98.10;;;;;;5011314;28;20037;-81
2023/05/02 12:43:06;;;;;;;13.10;3.50;;;13.00;98.40;;;;;;5007819;28;20034;-82
2023/05/02 12:45:33;;;;;;;7.55;2.90;;;13.00;98.20;;;;;;5003796;28;20026;-82
2023/05/02 12:48:17;;;;;;;9.75;3.42;;;13.10;98.10;;;;;;5000528;28;20037;-81